createdAt,value
2018-12-17T00:00:05.356Z,83.06
2018-12-17T00:01:05.358Z,82.40
2018-12-17T00:02:05.343Z,82.75
2018-12-17T00:03:05.328Z,83.03
2018-12-17T00:04:05.315Z,83.03
2018-12-17T00:05:05.334Z,82.19
2018-12-17T00:06:05.326Z,82.60
2018-12-17T00:07:05.338Z,82.19
2018-12-17T00:08:05.304Z,83.20
2018-12-17T00:09:05.276Z,82.29
2018-12-17T00:10:05.250Z,82.50
2018-12-17T00:11:05.255Z,83.13
2018-12-17T00:12:05.239Z,82.57
2018-12-17T00:13:05.219Z,82.26
2018-12-17T00:14:05.228Z,81.73
2018-12-17T00:15:05.228Z,81.77
2018-12-17T00:16:05.196Z,82.57
2018-12-17T00:17:05.227Z,82.15
2018-12-17T00:18:06.305Z,82.40
2018-12-17T00:19:05.167Z,82.15
2018-12-17T00:20:58.460Z,82.60
2018-12-17T00:21:58.459Z,83.23
2018-12-17T00:22:58.463Z,82.46
2018-12-17T00:23:58.432Z,82.57
2018-12-17T00:24:58.421Z,82.05
2018-12-17T00:25:59.263Z,81.73
2018-12-17T00:26:58.414Z,82.09
2018-12-17T00:27:58.390Z,82.29
2018-12-17T00:28:58.376Z,82.54
2018-12-17T00:29:58.386Z,82.71
2018-12-17T00:30:58.376Z,83.06
2018-12-17T00:31:58.353Z,82.96
2018-12-17T00:32:58.336Z,82.54
2018-12-17T00:34:03.275Z,83.27
2018-12-17T00:34:58.325Z,82.86
2018-12-17T00:35:58.334Z,83.38
2018-12-17T00:37:01.233Z,83.38
2018-12-17T00:37:58.305Z,83.80
2018-12-17T00:38:59.266Z,83.27
2018-12-17T00:39:58.266Z,83.17
2018-12-17T00:40:58.256Z,83.59
2018-12-17T00:41:58.271Z,83.38
2018-12-17T00:42:58.257Z,83.90
2018-12-17T00:43:58.233Z,83.06
2018-12-17T00:44:58.240Z,84.11
2018-12-17T00:45:58.212Z,83.06
2018-12-17T00:46:58.191Z,83.48
2018-12-17T00:47:58.200Z,84.00
2018-12-17T00:48:58.171Z,83.69
2018-12-17T00:49:58.171Z,83.06
2018-12-17T00:50:58.149Z,84.00
2018-12-17T00:51:58.180Z,83.17
2018-12-17T00:52:58.145Z,83.27
2018-12-17T00:53:58.124Z,83.38
2018-12-17T00:54:58.113Z,83.44
2018-12-17T00:55:58.729Z,83.13
2018-12-17T00:56:58.095Z,83.23
2018-12-17T00:57:58.073Z,82.71
2018-12-17T00:58:58.070Z,82.82
2018-12-17T00:59:58.777Z,82.60
2018-12-17T01:00:58.054Z,82.71
2018-12-17T01:01:58.722Z,82.92
2018-12-17T01:02:58.034Z,82.82
2018-12-17T01:03:58.013Z,82.60
2018-12-17T01:04:58.019Z,83.62
2018-12-17T01:05:57.997Z,83.13
2018-12-17T01:06:58.008Z,82.57
2018-12-17T01:07:57.969Z,83.62
2018-12-17T01:08:57.973Z,83.72
2018-12-17T01:09:59.788Z,82.36
2018-12-17T01:10:57.946Z,82.57
2018-12-17T01:11:57.947Z,82.01
2018-12-17T01:12:57.934Z,82.43
2018-12-17T01:13:57.919Z,82.01
2018-12-17T01:14:57.998Z,81.63
2018-12-17T01:15:58.762Z,81.80
2018-12-17T01:16:57.873Z,81.11
2018-12-17T01:17:57.864Z,81.63
2018-12-17T01:18:57.862Z,82.05
2018-12-17T01:19:57.868Z,82.15
2018-12-17T01:20:57.871Z,82.26
2018-12-17T01:21:57.820Z,82.67
2018-12-17T01:22:58.811Z,82.26
2018-12-17T01:23:58.786Z,82.36
2018-12-17T01:24:58.766Z,82.26
2018-12-17T01:25:57.803Z,81.73
2018-12-17T01:26:57.777Z,82.15
2018-12-17T01:27:57.778Z,82.57
2018-12-17T01:28:57.764Z,82.57
2018-12-17T01:29:58.720Z,82.15
2018-12-17T01:30:57.733Z,82.26
2018-12-17T01:31:58.738Z,82.67
2018-12-17T01:32:58.257Z,82.50
2018-12-17T01:33:58.265Z,82.92
2018-12-17T01:34:57.689Z,83.09
2018-12-17T01:35:58.680Z,82.89
2018-12-17T01:37:00.259Z,82.78
2018-12-17T01:37:57.669Z,82.57
2018-12-17T01:38:57.659Z,82.46
2018-12-17T01:39:57.659Z,82.99
2018-12-17T01:40:57.631Z,82.89
2018-12-17T01:41:57.622Z,83.51
2018-12-17T01:42:57.616Z,82.36
2018-12-17T01:43:57.646Z,82.36
2018-12-17T01:44:57.599Z,82.78
2018-12-17T01:45:58.238Z,82.36
2018-12-17T01:46:57.574Z,82.15
2018-12-17T01:47:57.579Z,82.46
2018-12-17T01:48:57.554Z,82.15
2018-12-17T01:49:57.541Z,82.89
2018-12-17T01:50:57.523Z,82.05
2018-12-17T01:51:57.522Z,82.60
2018-12-17T01:52:57.523Z,82.71
2018-12-17T01:53:57.523Z,83.27
2018-12-17T01:54:57.487Z,83.17
2018-12-17T01:55:57.491Z,83.38
2018-12-17T01:56:57.463Z,83.03
2018-12-17T01:57:57.456Z,83.44
2018-12-17T01:58:57.445Z,83.34
2018-12-17T01:59:57.443Z,83.34
2018-12-17T02:00:57.429Z,83.03
2018-12-17T02:01:57.414Z,83.76
2018-12-17T02:02:57.395Z,82.50
2018-12-17T02:03:57.404Z,82.71
2018-12-17T02:04:57.394Z,82.60
2018-12-17T02:05:57.363Z,83.13
2018-12-17T02:06:57.379Z,83.40
2018-12-17T02:07:57.362Z,82.57
2018-12-17T02:08:57.345Z,82.78
2018-12-17T02:09:57.322Z,82.46
2018-12-17T02:10:57.320Z,82.78
2018-12-17T02:11:57.303Z,82.57
2018-12-17T02:12:57.299Z,82.26
2018-12-17T02:13:57.344Z,82.22
2018-12-17T02:14:57.275Z,82.74
2018-12-17T02:15:57.259Z,80.90
2018-12-17T02:16:57.258Z,82.22
2018-12-17T02:17:57.245Z,82.84
2018-12-17T02:18:57.235Z,81.80
2018-12-17T02:19:57.235Z,80.55
2018-12-17T02:20:57.213Z,81.07
2018-12-17T02:21:57.204Z,82.46
2018-12-17T02:22:57.188Z,82.15
2018-12-17T02:23:57.178Z,82.12
2018-12-17T02:24:57.178Z,82.22
2018-12-17T02:25:57.166Z,82.53
2018-12-17T02:26:57.152Z,81.07
2018-12-17T02:27:57.143Z,81.38
2018-12-17T02:28:57.135Z,79.75
2018-12-17T02:29:57.122Z,81.42
2018-12-17T02:30:58.774Z,82.46
2018-12-17T02:31:58.105Z,82.57
2018-12-17T02:32:57.082Z,83.20
2018-12-17T02:33:57.076Z,82.53
2018-12-17T02:34:57.072Z,82.12
2018-12-17T02:35:57.072Z,80.86
2018-12-17T02:36:57.052Z,82.01
2018-12-17T02:37:57.040Z,82.12
2018-12-17T02:38:57.037Z,82.29
2018-12-17T02:39:57.008Z,82.18
2018-12-17T02:40:57.008Z,79.71
2018-12-17T02:41:56.998Z,79.61
2018-12-17T02:42:56.982Z,80.02
2018-12-17T02:43:56.969Z,81.11
2018-12-17T02:44:56.968Z,81.52
2018-12-17T02:45:56.952Z,82.01
2018-12-17T02:46:56.946Z,81.63
2018-12-17T02:47:56.930Z,80.96
2018-12-17T02:48:56.967Z,82.43
2018-12-17T02:49:56.906Z,81.80
2018-12-17T02:50:56.894Z,81.59
2018-12-17T02:51:56.894Z,81.21
2018-12-17T02:52:56.879Z,80.79
2018-12-17T02:53:57.766Z,82.46
2018-12-17T02:54:57.490Z,81.73
2018-12-17T02:55:56.861Z,82.99
2018-12-17T02:56:56.859Z,82.46
2018-12-17T02:57:56.825Z,82.15
2018-12-17T02:58:56.824Z,82.26
2018-12-17T02:59:56.801Z,81.70
2018-12-17T03:00:56.800Z,82.36
2018-12-17T03:01:57.842Z,81.73
2018-12-17T03:02:56.812Z,80.79
2018-12-17T03:03:56.759Z,81.52
2018-12-17T03:04:56.756Z,81.73
2018-12-17T03:05:56.744Z,82.26
2018-12-17T03:06:57.752Z,82.50
2018-12-17T03:07:57.272Z,81.67
2018-12-17T03:08:56.719Z,82.67
2018-12-17T03:09:56.717Z,82.36
2018-12-17T03:10:58.471Z,82.01
2018-12-17T03:11:56.702Z,82.32
2018-12-17T03:12:56.674Z,82.32
2018-12-17T03:13:59.256Z,81.90
2018-12-17T03:14:56.652Z,81.87
2018-12-17T03:15:56.639Z,79.99
2018-12-17T03:16:56.650Z,79.78
2018-12-17T03:17:56.631Z,80.93
2018-12-17T03:18:56.612Z,81.56
2018-12-17T03:19:56.599Z,78.80
2018-12-17T03:20:57.236Z,78.84
2018-12-17T03:21:56.593Z,79.95
2018-12-17T03:22:56.567Z,78.45
2018-12-17T03:23:56.559Z,79.71
2018-12-17T03:24:56.548Z,79.39
2018-12-17T03:25:56.533Z,79.71
2018-12-17T03:26:56.531Z,78.73
2018-12-17T03:27:56.511Z,78.11
2018-12-17T03:28:56.528Z,77.45
2018-12-17T03:29:56.510Z,77.13
2018-12-17T03:30:56.495Z,76.61
2018-12-17T03:31:56.485Z,76.06
2018-12-17T03:32:56.480Z,76.37
2018-12-17T03:33:56.475Z,75.43
2018-12-17T03:34:56.441Z,74.98
2018-12-17T03:35:56.432Z,75.09
2018-12-17T03:36:56.437Z,75.40
2018-12-17T03:37:56.403Z,75.09
2018-12-17T03:38:56.402Z,74.87
2018-12-17T03:39:56.400Z,74.11
2018-12-17T03:40:56.383Z,73.07
2018-12-17T03:41:56.365Z,73.94
2018-12-17T03:42:56.373Z,74.66
2018-12-17T03:43:56.357Z,74.21
2018-12-17T03:44:56.331Z,74.63
2018-12-17T03:45:56.333Z,74.43
2018-12-17T03:46:56.312Z,74.11
2018-12-17T03:47:56.333Z,72.79
2018-12-17T03:48:57.261Z,72.58
2018-12-17T03:49:56.280Z,73.45
2018-12-17T03:50:56.265Z,74.18
2018-12-17T03:51:56.259Z,74.42
2018-12-17T03:52:56.252Z,76.33
2018-12-17T03:53:56.243Z,75.36
2018-12-17T03:54:56.237Z,76.65
2018-12-17T03:55:56.240Z,77.55
2018-12-17T03:56:56.206Z,75.98
2018-12-17T03:57:56.208Z,74.87
2018-12-17T03:58:59.430Z,76.75
2018-12-17T03:59:56.189Z,76.96
2018-12-17T04:00:56.730Z,76.72
2018-12-17T04:01:56.152Z,75.29
2018-12-17T04:02:56.159Z,75.18
2018-12-17T04:03:56.137Z,75.81
2018-12-17T04:04:56.124Z,76.86
2018-12-17T04:05:56.113Z,77.69
2018-12-17T04:06:57.772Z,76.02
2018-12-17T04:07:56.760Z,76.86
2018-12-17T04:08:56.075Z,76.33
2018-12-17T04:09:56.072Z,76.12
2018-12-17T04:10:56.073Z,76.47
2018-12-17T04:11:56.051Z,77.90
2018-12-17T04:12:56.062Z,77.00
2018-12-17T04:13:56.025Z,77.14
2018-12-17T04:14:56.021Z,77.66
2018-12-17T04:15:56.014Z,78.49
2018-12-17T04:16:55.999Z,78.80
2018-12-17T04:17:55.989Z,79.71
2018-12-17T04:18:56.768Z,78.14
2018-12-17T04:19:56.765Z,77.94
2018-12-17T04:20:55.961Z,77.69
2018-12-17T04:21:55.942Z,77.06
2018-12-17T04:22:55.941Z,75.85
2018-12-17T04:23:55.934Z,77.31
2018-12-17T04:24:55.915Z,78.00
2018-12-17T04:25:55.904Z,77.69
2018-12-17T04:26:55.895Z,77.58
2018-12-17T04:27:55.875Z,77.76
2018-12-17T04:28:55.865Z,76.82
2018-12-17T04:29:55.870Z,76.68
2018-12-17T04:30:55.884Z,74.74
2018-12-17T04:31:55.831Z,75.22
2018-12-17T04:32:55.824Z,75.12
2018-12-17T04:33:55.813Z,74.39
2018-12-17T04:34:55.805Z,75.09
2018-12-17T04:35:55.798Z,74.25
2018-12-17T04:36:55.794Z,73.83
2018-12-17T04:37:56.767Z,73.00
2018-12-17T04:38:55.762Z,74.35
2018-12-17T04:39:55.766Z,73.94
2018-12-17T04:40:55.741Z,73.63
2018-12-17T04:41:55.732Z,74.15
2018-12-17T04:42:55.720Z,73.63
2018-12-17T04:43:55.714Z,73.28
2018-12-17T04:44:55.700Z,73.90
2018-12-17T04:45:55.694Z,72.86
2018-12-17T04:46:55.677Z,72.66
2018-12-17T04:47:55.670Z,72.10
2018-12-17T04:48:55.662Z,71.37
2018-12-17T04:49:55.660Z,71.27
2018-12-17T04:50:55.636Z,70.36
2018-12-17T04:51:55.653Z,71.17
2018-12-17T04:52:55.644Z,71.72
2018-12-17T04:53:55.626Z,71.41
2018-12-17T04:54:55.594Z,71.65
2018-12-17T04:55:55.588Z,72.83
2018-12-17T04:56:55.575Z,74.42
2018-12-17T04:57:55.580Z,73.76
2018-12-17T04:58:55.561Z,74.21
2018-12-17T04:59:57.265Z,74.95
2018-12-17T05:00:55.534Z,76.40
2018-12-17T05:01:55.531Z,75.15
2018-12-17T05:02:55.505Z,74.42
2018-12-17T05:03:55.512Z,74.77
2018-12-17T05:04:55.494Z,75.40
2018-12-17T05:05:55.508Z,75.63
2018-12-17T05:06:56.474Z,76.57
2018-12-17T05:07:55.475Z,77.00
2018-12-17T05:08:55.451Z,76.61
2018-12-17T05:09:55.469Z,77.76
2018-12-17T05:10:55.447Z,77.76
2018-12-17T05:11:55.426Z,78.18
2018-12-17T05:12:55.415Z,78.21
2018-12-17T05:13:55.404Z,78.63
2018-12-17T05:14:55.420Z,79.15
2018-12-17T05:15:55.394Z,80.89
2018-12-17T05:16:55.367Z,79.53
2018-12-17T05:17:55.358Z,80.37
2018-12-17T05:18:55.354Z,79.64
2018-12-17T05:19:55.331Z,78.14
2018-12-17T05:20:55.320Z,77.62
2018-12-17T05:21:55.313Z,77.72
2018-12-17T05:22:55.306Z,77.97
2018-12-17T05:23:55.296Z,77.45
2018-12-17T05:24:55.291Z,78.45
2018-12-17T05:25:55.271Z,78.59
2018-12-17T05:26:55.261Z,78.18
2018-12-17T05:27:55.246Z,78.07
2018-12-17T05:28:55.259Z,78.39
2018-12-17T05:29:57.780Z,79.01
2018-12-17T05:30:56.768Z,77.97
2018-12-17T05:31:55.213Z,77.80
2018-12-17T05:32:55.198Z,78.39
2018-12-17T05:33:55.182Z,78.53
2018-12-17T05:34:55.174Z,78.70
2018-12-17T05:35:55.153Z,79.33
2018-12-17T05:36:55.149Z,79.53
2018-12-17T05:37:55.138Z,79.91
2018-12-17T05:38:57.772Z,78.87
2018-12-17T05:39:55.159Z,77.72
2018-12-17T05:40:55.113Z,76.57
2018-12-17T05:41:55.107Z,76.89
2018-12-17T05:42:55.088Z,78.59
2018-12-17T05:43:55.766Z,77.66
2018-12-17T05:44:55.063Z,77.80
2018-12-17T05:45:55.055Z,78.18
2018-12-17T05:46:55.046Z,78.53
2018-12-17T05:47:55.765Z,79.15
2018-12-17T05:48:55.018Z,79.53
2018-12-17T05:49:55.021Z,79.11
2018-12-17T05:50:54.997Z,78.39
2018-12-17T05:51:54.993Z,77.66
2018-12-17T05:52:54.984Z,77.97
2018-12-17T05:53:54.963Z,77.97
2018-12-17T05:54:54.959Z,78.18
2018-12-17T05:55:54.943Z,79.64
2018-12-17T05:56:54.932Z,79.91
2018-12-17T05:57:54.928Z,79.71
2018-12-17T05:58:54.916Z,78.11
2018-12-17T05:59:54.901Z,77.48
2018-12-17T06:00:54.907Z,77.69
2018-12-17T06:01:54.900Z,78.52
2018-12-17T06:02:54.868Z,76.65
2018-12-17T06:03:54.857Z,75.81
2018-12-17T06:04:54.852Z,77.76
2018-12-17T06:05:54.834Z,76.51
2018-12-17T06:06:54.826Z,76.09
2018-12-17T06:07:54.827Z,77.34
2018-12-17T06:08:54.809Z,77.23
2018-12-17T06:09:54.807Z,76.61
2018-12-17T06:10:54.793Z,77.41
2018-12-17T06:11:54.779Z,75.81
2018-12-17T06:12:54.772Z,75.71
2018-12-17T06:13:55.737Z,74.87
2018-12-17T06:14:54.747Z,75.32
2018-12-17T06:15:54.729Z,74.77
2018-12-17T06:16:54.728Z,75.19
2018-12-17T06:17:55.707Z,76.12
2018-12-17T06:18:56.278Z,75.26
2018-12-17T06:19:54.688Z,74.95
2018-12-17T06:20:54.681Z,75.05
2018-12-17T06:21:54.671Z,74.95
2018-12-17T06:22:54.661Z,74.32
2018-12-17T06:23:54.646Z,73.97
2018-12-17T06:24:56.267Z,73.69
2018-12-17T06:25:57.256Z,73.49
2018-12-17T06:26:54.617Z,74.11
2018-12-17T06:27:54.605Z,72.86
2018-12-17T06:28:54.600Z,73.25
2018-12-17T06:29:54.576Z,73.66
2018-12-17T06:30:54.583Z,73.35
2018-12-17T06:31:54.557Z,73.59
2018-12-17T06:32:54.556Z,72.62
2018-12-17T06:33:54.543Z,72.62
2018-12-17T06:34:54.538Z,72.17
2018-12-17T06:35:54.515Z,72.31
2018-12-17T06:36:54.509Z,72.38
2018-12-17T06:37:54.509Z,72.07
2018-12-17T06:38:54.489Z,71.89
2018-12-17T06:39:54.481Z,73.32
2018-12-17T06:40:54.470Z,73.03
2018-12-17T06:41:54.470Z,72.41
2018-12-17T06:42:54.450Z,72.20
2018-12-17T06:43:54.435Z,72.38
2018-12-17T06:44:54.428Z,72.20
2018-12-17T06:45:54.420Z,71.86
2018-12-17T06:46:54.402Z,72.38
2018-12-17T06:47:54.394Z,73.66
2018-12-17T06:48:54.410Z,73.66
2018-12-17T06:49:55.219Z,73.46
2018-12-17T06:50:54.376Z,73.28
2018-12-17T06:51:54.354Z,73.14
2018-12-17T06:52:54.337Z,73.38
2018-12-17T06:53:54.338Z,73.49
2018-12-17T06:54:55.270Z,73.59
2018-12-17T06:55:54.310Z,73.46
2018-12-17T06:56:54.301Z,73.46
2018-12-17T06:57:54.314Z,72.83
2018-12-17T06:58:54.295Z,72.76
2018-12-17T06:59:54.301Z,72.83
2018-12-17T07:00:54.276Z,73.07
2018-12-17T07:01:54.270Z,72.62
2018-12-17T07:02:54.235Z,72.52
2018-12-17T07:03:54.223Z,72.10
2018-12-17T07:04:54.222Z,72.20
2018-12-17T07:05:54.205Z,72.17
2018-12-17T07:06:54.195Z,72.49
2018-12-17T07:07:54.198Z,72.52
2018-12-17T07:08:54.179Z,72.10
2018-12-17T07:09:54.164Z,72.28
2018-12-17T07:10:54.159Z,72.17
2018-12-17T07:11:54.141Z,72.17
2018-12-17T07:12:54.135Z,71.44
2018-12-17T07:13:54.133Z,71.79
2018-12-17T07:14:54.119Z,71.65
2018-12-17T07:15:54.107Z,71.97
2018-12-17T07:16:54.102Z,71.55
2018-12-17T07:17:54.111Z,71.03
2018-12-17T07:18:54.089Z,70.72
2018-12-17T07:19:54.243Z,71.13
2018-12-17T07:20:54.051Z,70.92
2018-12-17T07:21:54.039Z,70.51
2018-12-17T07:22:54.034Z,70.51
2018-12-17T07:23:54.015Z,70.51
2018-12-17T07:24:54.027Z,70.82
2018-12-17T07:25:53.997Z,71.13
2018-12-17T07:26:53.989Z,71.34
2018-12-17T07:27:53.977Z,71.55
2018-12-17T07:28:53.968Z,71.97
2018-12-17T07:29:53.946Z,72.17
2018-12-17T07:30:54.757Z,72.00
2018-12-17T07:31:53.934Z,71.58
2018-12-17T07:32:53.927Z,71.48
2018-12-17T07:33:53.910Z,72.17
2018-12-17T07:34:53.903Z,71.58
2018-12-17T07:35:53.889Z,72.00
2018-12-17T07:36:53.881Z,72.31
2018-12-17T07:37:53.872Z,72.10
2018-12-17T07:38:53.864Z,71.79
2018-12-17T07:39:53.850Z,72.00
2018-12-17T07:40:53.842Z,71.58
2018-12-17T07:41:53.838Z,71.37
2018-12-17T07:42:53.841Z,71.03
2018-12-17T07:43:53.804Z,70.92
2018-12-17T07:44:53.793Z,70.92
2018-12-17T07:45:53.796Z,71.34
2018-12-17T07:46:53.782Z,71.34
2018-12-17T07:47:53.771Z,71.65
2018-12-17T07:48:53.753Z,79.97
2018-12-17T07:49:53.742Z,83.91
2018-12-17T07:50:53.733Z,77.85
2018-12-17T07:51:53.723Z,74.26
2018-12-17T07:52:53.722Z,71.94
2018-12-17T07:53:53.694Z,68.38
2018-12-17T07:54:53.690Z,66.80
2018-12-17T07:55:53.682Z,65.73
2018-12-17T07:56:53.671Z,65.22
2018-12-17T07:57:53.662Z,64.87
2018-12-17T07:58:53.658Z,64.77
2018-12-17T07:59:56.617Z,63.84
2018-12-17T08:00:53.631Z,63.29
2018-12-17T08:01:53.619Z,62.44
2018-12-17T08:02:53.605Z,62.13
2018-12-17T08:03:53.603Z,61.92
2018-12-17T08:04:53.588Z,61.30
2018-12-17T08:05:53.581Z,61.38
2018-12-17T08:06:53.568Z,60.52
2018-12-17T08:07:53.575Z,59.52
2018-12-17T08:08:54.263Z,60.00
2018-12-17T08:09:53.529Z,59.28
2018-12-17T08:10:53.519Z,59.72
2018-12-17T08:11:53.508Z,60.31
2018-12-17T08:12:54.263Z,59.69
2018-12-17T08:13:53.488Z,59.08
2018-12-17T08:14:53.473Z,58.87
2018-12-17T08:15:53.468Z,57.24
2018-12-17T08:16:53.588Z,58.20
2018-12-17T08:17:53.443Z,58.92
2018-12-17T08:18:53.438Z,59.60
2018-12-17T08:19:54.264Z,60.66
2018-12-17T08:20:53.414Z,60.46
2018-12-17T08:21:53.431Z,62.04
2018-12-17T08:22:53.502Z,62.37
2018-12-17T08:23:53.379Z,62.82
2018-12-17T08:24:53.376Z,63.02
2018-12-17T08:25:53.361Z,63.78
2018-12-17T08:26:53.354Z,63.68
2018-12-17T08:27:53.352Z,64.51
2018-12-17T08:28:53.332Z,64.30
2018-12-17T08:29:53.318Z,64.51
2018-12-17T08:30:53.318Z,64.61
2018-12-17T08:31:53.316Z,64.72
2018-12-17T08:32:53.307Z,65.78
2018-12-17T08:33:54.268Z,65.37
2018-12-17T08:34:53.296Z,65.68
2018-12-17T08:35:53.268Z,66.09
2018-12-17T08:36:54.244Z,66.20
2018-12-17T08:37:53.238Z,65.99
2018-12-17T08:38:53.232Z,65.68
2018-12-17T08:39:53.231Z,65.89
2018-12-17T08:40:53.233Z,66.09
2018-12-17T08:41:53.207Z,65.89
2018-12-17T08:42:53.198Z,66.61
2018-12-17T08:43:53.198Z,65.99
2018-12-17T08:44:53.173Z,65.89
2018-12-17T08:45:53.774Z,66.51
2018-12-17T08:46:53.145Z,66.72
2018-12-17T08:47:53.137Z,66.64
2018-12-17T08:48:53.129Z,66.93
2018-12-17T08:49:53.130Z,66.30
2018-12-17T08:50:53.129Z,66.61
2018-12-17T08:51:53.104Z,66.75
2018-12-17T08:52:53.088Z,65.99
2018-12-17T08:53:53.210Z,65.99
2018-12-17T08:54:53.061Z,65.78
2018-12-17T08:55:53.502Z,66.20
2018-12-17T08:56:53.046Z,66.09
2018-12-17T08:57:53.042Z,66.72
2018-12-17T08:58:53.035Z,66.41
2018-12-17T08:59:53.023Z,66.61
2018-12-17T09:00:53.030Z,66.20
2018-12-17T09:01:52.999Z,66.20
2018-12-17T09:02:52.981Z,65.89
2018-12-17T09:03:53.014Z,65.26
2018-12-17T09:04:52.962Z,65.37
2018-12-17T09:05:52.993Z,66.12
2018-12-17T09:06:53.782Z,66.09
2018-12-17T09:07:52.950Z,66.09
2018-12-17T09:08:54.773Z,65.99
2018-12-17T09:09:52.920Z,66.09
2018-12-17T09:10:53.450Z,65.89
2018-12-17T09:11:52.891Z,66.61
2018-12-17T09:12:52.881Z,65.99
2018-12-17T09:13:52.892Z,66.06
2018-12-17T09:14:52.866Z,66.06
2018-12-17T09:15:52.844Z,66.27
2018-12-17T09:16:52.835Z,66.58
2018-12-17T09:17:52.818Z,66.72
2018-12-17T09:18:52.811Z,66.58
2018-12-17T09:19:52.805Z,66.51
2018-12-17T09:20:52.783Z,65.99
2018-12-17T09:21:52.777Z,65.96
2018-12-17T09:22:53.764Z,66.17
2018-12-17T09:23:52.758Z,66.38
2018-12-17T09:24:52.751Z,66.58
2018-12-17T09:25:52.745Z,66.38
2018-12-17T09:26:52.731Z,66.72
2018-12-17T09:27:53.720Z,66.68
2018-12-17T09:28:52.701Z,66.17
2018-12-17T09:29:52.701Z,65.86
2018-12-17T09:30:53.787Z,65.86
2018-12-17T09:31:52.690Z,65.96
2018-12-17T09:32:53.479Z,65.86
2018-12-17T09:33:52.686Z,66.17
2018-12-17T09:34:52.760Z,66.27
2018-12-17T09:35:53.275Z,65.96
2018-12-17T09:36:52.767Z,66.38
2018-12-17T09:37:52.614Z,66.27
2018-12-17T09:38:54.280Z,66.55
2018-12-17T09:39:53.688Z,66.35
2018-12-17T09:40:52.819Z,66.65
2018-12-17T09:41:52.746Z,66.65
2018-12-17T09:42:52.565Z,66.86
2018-12-17T09:43:53.235Z,66.86
2018-12-17T09:44:52.561Z,66.65
2018-12-17T09:45:52.530Z,66.35
2018-12-17T09:46:53.278Z,66.75
2018-12-17T09:47:52.504Z,66.86
2018-12-17T09:48:52.505Z,66.65
2018-12-17T09:49:54.285Z,66.55
2018-12-17T09:50:52.497Z,66.65
2018-12-17T09:51:53.278Z,66.52
2018-12-17T09:52:52.507Z,66.62
2018-12-17T09:53:53.288Z,66.14
2018-12-17T09:54:54.287Z,66.62
2018-12-17T09:55:52.423Z,66.86
2018-12-17T09:56:52.512Z,66.83
2018-12-17T09:57:52.406Z,66.62
2018-12-17T09:58:52.500Z,66.83
2018-12-17T09:59:52.373Z,66.72
2018-12-17T10:00:52.508Z,66.93
2018-12-17T10:01:53.245Z,66.83
2018-12-17T10:02:53.347Z,66.62
2018-12-17T10:03:52.336Z,66.62
2018-12-17T10:04:53.288Z,66.52
2018-12-17T10:05:53.280Z,66.83
2018-12-17T10:06:52.355Z,66.62
2018-12-17T10:07:52.293Z,66.72
2018-12-17T10:08:53.236Z,66.83
2018-12-17T10:09:52.334Z,66.83
2018-12-17T10:10:53.270Z,66.62
2018-12-17T10:11:52.260Z,66.83
2018-12-17T10:12:52.802Z,66.59
2018-12-17T10:13:53.770Z,66.69
2018-12-17T10:14:54.768Z,66.80
2018-12-17T10:15:53.223Z,66.69
2018-12-17T10:16:52.328Z,66.49
2018-12-17T10:17:53.190Z,66.59
2018-12-17T10:18:52.274Z,66.80
2018-12-17T10:19:52.167Z,66.80
2018-12-17T10:20:52.281Z,66.66
2018-12-17T10:21:52.168Z,66.46
2018-12-17T10:22:52.152Z,66.46
2018-12-17T10:23:52.130Z,66.56
2018-12-17T10:24:53.114Z,66.56
2018-12-17T10:25:52.109Z,66.46
2018-12-17T10:26:53.795Z,66.35
2018-12-17T10:27:53.765Z,66.46
2018-12-17T10:28:52.769Z,66.46
2018-12-17T10:29:52.065Z,66.32
2018-12-17T10:30:52.119Z,66.56
2018-12-17T10:31:52.037Z,66.35
2018-12-17T10:32:52.045Z,66.56
2018-12-17T10:33:53.798Z,66.56
2018-12-17T10:34:53.081Z,66.87
2018-12-17T10:35:52.765Z,66.46
2018-12-17T10:36:52.033Z,66.66
2018-12-17T10:37:52.004Z,66.77
2018-12-17T10:38:51.983Z,66.77
2018-12-17T10:39:51.973Z,66.56
2018-12-17T10:40:51.954Z,67.60
2018-12-17T10:41:51.941Z,66.87
2018-12-17T10:42:51.925Z,66.77
2018-12-17T10:43:51.927Z,66.87
2018-12-17T10:44:52.936Z,67.29
2018-12-17T10:45:51.927Z,68.32
2018-12-17T10:46:51.889Z,68.32
2018-12-17T10:47:52.784Z,67.70
2018-12-17T10:48:51.865Z,67.29
2018-12-17T10:49:53.775Z,67.80
2018-12-17T10:50:52.878Z,67.80
2018-12-17T10:51:55.765Z,67.70
2018-12-17T10:52:51.836Z,67.80
2018-12-17T10:53:51.957Z,68.32
2018-12-17T10:54:51.800Z,67.80
2018-12-17T10:55:51.895Z,68.12
2018-12-17T10:56:51.785Z,68.22
2018-12-17T10:57:51.799Z,68.74
2018-12-17T10:58:51.758Z,68.63
2018-12-17T10:59:51.749Z,68.43
2018-12-17T11:00:51.748Z,68.22
2018-12-17T11:01:51.727Z,68.12
2018-12-17T11:02:51.720Z,68.66
2018-12-17T11:03:51.756Z,68.77
2018-12-17T11:04:51.689Z,69.49
2018-12-17T11:05:51.738Z,68.87
2018-12-17T11:06:51.667Z,69.29
2018-12-17T11:07:51.685Z,69.39
2018-12-17T11:08:51.737Z,69.18
2018-12-17T11:09:51.705Z,69.49
2018-12-17T11:10:51.818Z,69.90
2018-12-17T11:11:52.621Z,70.01
2018-12-17T11:12:51.612Z,70.21
2018-12-17T11:13:51.609Z,70.46
2018-12-17T11:14:52.294Z,70.15
2018-12-17T11:15:51.575Z,70.56
2018-12-17T11:16:51.560Z,70.46
2018-12-17T11:17:52.317Z,71.08
2018-12-17T11:18:51.541Z,71.28
2018-12-17T11:19:53.276Z,71.28
2018-12-17T11:20:53.353Z,71.59
2018-12-17T11:21:51.519Z,71.59
2018-12-17T11:22:51.515Z,71.39
2018-12-17T11:23:53.283Z,71.39
2018-12-17T11:24:52.289Z,71.91
2018-12-17T11:25:52.478Z,71.59
2018-12-17T11:26:51.484Z,71.04
2018-12-17T11:27:51.506Z,71.18
2018-12-17T11:28:51.455Z,71.04
2018-12-17T11:29:52.276Z,70.94
2018-12-17T11:30:52.456Z,71.04
2018-12-17T11:31:51.415Z,70.39
2018-12-17T11:32:52.415Z,70.18
2018-12-17T11:33:52.388Z,70.39
2018-12-17T11:34:51.408Z,70.29
2018-12-17T11:35:51.375Z,70.18
2018-12-17T11:36:51.357Z,70.18
2018-12-17T11:37:52.235Z,70.08
2018-12-17T11:38:51.333Z,70.39
2018-12-17T11:39:51.329Z,69.74
2018-12-17T11:40:51.311Z,69.98
2018-12-17T11:41:52.323Z,69.53
2018-12-17T11:42:51.298Z,69.64
2018-12-17T11:43:51.290Z,69.84
2018-12-17T11:44:51.780Z,69.98
2018-12-17T11:45:51.261Z,70.63
2018-12-17T11:46:52.251Z,70.29
2018-12-17T11:47:51.424Z,70.42
2018-12-17T11:48:51.241Z,71.04
2018-12-17T11:49:51.736Z,71.36
2018-12-17T11:50:51.242Z,71.56
2018-12-17T11:51:51.203Z,71.77
2018-12-17T11:52:51.184Z,71.36
2018-12-17T11:53:51.186Z,70.70
2018-12-17T11:54:52.171Z,69.95
2018-12-17T11:55:52.159Z,69.43
2018-12-17T11:56:51.155Z,70.15
2018-12-17T11:58:00.332Z,69.84
2018-12-17T11:58:51.121Z,69.98
2018-12-17T11:59:58.413Z,70.32
2018-12-17T12:00:53.904Z,71.25
2018-12-17T12:01:52.871Z,72.01
2018-12-17T12:02:59.308Z,72.56
2018-12-17T12:03:51.085Z,72.98
2018-12-17T12:05:01.468Z,72.98
2018-12-17T12:05:51.971Z,72.53
2018-12-17T12:06:51.030Z,72.42
2018-12-17T12:07:51.034Z,72.74
2018-12-17T12:08:51.030Z,72.19
2018-12-17T12:09:51.001Z,72.22
2018-12-17T12:10:51.014Z,72.74
2018-12-17T12:11:51.969Z,72.98
2018-12-17T12:12:51.967Z,72.56
2018-12-17T12:13:50.977Z,72.88
2018-12-17T12:14:50.955Z,72.63
2018-12-17T12:15:50.938Z,72.42
2018-12-17T12:16:50.967Z,72.53
2018-12-17T12:17:50.918Z,72.22
2018-12-17T12:18:51.898Z,72.01
2018-12-17T12:19:50.903Z,71.70
2018-12-17T12:20:53.434Z,71.15
2018-12-17T12:21:50.879Z,71.67
2018-12-17T12:22:50.885Z,71.77
2018-12-17T12:23:50.857Z,71.04
2018-12-17T12:24:51.423Z,71.18
2018-12-17T12:25:53.418Z,72.19
2018-12-17T12:26:50.825Z,72.25
2018-12-17T12:27:50.855Z,73.60
2018-12-17T12:28:50.797Z,73.94
2018-12-17T12:29:51.396Z,74.46
2018-12-17T12:30:50.782Z,75.19
2018-12-17T12:31:51.425Z,74.98
2018-12-17T12:32:51.768Z,74.98
2018-12-17T12:33:50.756Z,75.23
2018-12-17T12:34:50.743Z,75.85
2018-12-17T12:35:50.732Z,76.75
2018-12-17T12:36:51.430Z,75.81
2018-12-17T12:37:50.725Z,76.33
2018-12-17T12:38:50.698Z,76.89
2018-12-17T12:39:50.689Z,76.12
2018-12-17T12:40:50.700Z,76.37
2018-12-17T12:41:50.674Z,76.16
2018-12-17T12:42:51.841Z,77.54
2018-12-17T12:43:51.418Z,77.75
2018-12-17T12:44:50.761Z,78.06
2018-12-17T12:45:50.627Z,78.37
2018-12-17T12:46:50.620Z,77.95
2018-12-17T12:47:50.599Z,78.27
2018-12-17T12:48:50.606Z,78.75
2018-12-17T12:49:50.589Z,78.13
2018-12-17T12:50:55.435Z,77.72
2018-12-17T12:51:52.725Z,77.61
2018-12-17T12:52:51.429Z,77.30